createdAt,value
2023-04-16T00:00:10.344Z,9.20
2023-04-16T00:00:43.027Z,9.20
2023-04-16T00:01:15.719Z,9.20
2023-04-16T00:01:48.433Z,9.18
2023-04-16T00:02:21.420Z,9.18
2023-04-16T00:02:47.945Z,9.20
2023-04-16T00:03:20.854Z,9.18
2023-04-16T00:03:53.866Z,9.20
2023-04-16T00:04:20.304Z,9.20
2023-04-16T00:04:52.983Z,9.20
2023-04-16T00:05:25.635Z,9.20
2023-04-16T00:05:56.724Z,9.21
2023-04-16T00:06:29.381Z,9.20
2023-04-16T00:07:02.049Z,9.21
2023-04-16T00:07:34.750Z,9.20
2023-04-16T00:08:07.426Z,9.20
2023-04-16T00:08:40.301Z,9.20
2023-04-16T00:09:12.960Z,9.20
2023-04-16T00:09:45.615Z,9.20
2023-04-16T00:10:18.308Z,9.23
2023-04-16T00:10:50.951Z,9.20
2023-04-16T00:11:23.619Z,9.20
2023-04-16T00:11:56.289Z,9.20
2023-04-16T00:12:28.970Z,9.20
2023-04-16T00:13:01.636Z,9.20
2023-04-16T00:13:34.299Z,9.20
2023-04-16T00:14:06.973Z,9.18
2023-04-16T00:14:39.637Z,9.20
2023-04-16T00:15:12.313Z,9.20
2023-04-16T00:15:44.993Z,9.20
2023-04-16T00:16:17.732Z,9.20
2023-04-16T00:16:50.505Z,9.18
2023-04-16T00:17:23.237Z,9.20
2023-04-16T00:17:56.025Z,9.18
2023-04-16T00:18:28.711Z,9.18
2023-04-16T00:19:01.363Z,9.17
2023-04-16T00:19:34.019Z,9.17
2023-04-16T00:20:06.688Z,9.18
2023-04-16T00:20:39.355Z,9.20
2023-04-16T00:21:12.039Z,9.20
2023-04-16T00:21:44.711Z,9.18
2023-04-16T00:22:17.380Z,9.18
2023-04-16T00:22:50.078Z,9.18
2023-04-16T00:23:22.752Z,9.17
2023-04-16T00:23:55.459Z,9.18
2023-04-16T00:24:28.105Z,9.17
2023-04-16T00:25:00.778Z,9.18
2023-04-16T00:25:33.454Z,9.18
2023-04-16T00:26:06.105Z,9.17
2023-04-16T00:26:38.779Z,9.17
2023-04-16T00:27:11.435Z,9.17
2023-04-16T00:27:44.124Z,9.17
2023-04-16T00:28:16.796Z,9.17
2023-04-16T00:28:49.467Z,9.17
2023-04-16T00:29:22.132Z,9.17
2023-04-16T00:29:54.807Z,9.17
2023-04-16T00:30:27.468Z,9.17
2023-04-16T00:31:00.182Z,9.15
2023-04-16T00:31:32.879Z,9.17
2023-04-16T00:32:05.541Z,9.18
2023-04-16T00:32:38.274Z,9.15
2023-04-16T00:33:09.321Z,9.15
2023-04-16T00:33:41.995Z,9.15
2023-04-16T00:34:14.664Z,9.17
2023-04-16T00:34:47.318Z,9.17
2023-04-16T00:35:20.011Z,9.17
2023-04-16T00:35:52.684Z,9.17
2023-04-16T00:36:25.375Z,9.15
2023-04-16T00:36:58.015Z,9.14
2023-04-16T00:37:30.687Z,9.15
2023-04-16T00:38:03.370Z,9.15
2023-04-16T00:38:36.032Z,9.17
2023-04-16T00:39:09.110Z,9.15
2023-04-16T00:39:35.373Z,9.15
2023-04-16T00:40:08.057Z,9.15
2023-04-16T00:40:40.720Z,9.14
2023-04-16T00:41:13.376Z,9.14
2023-04-16T00:41:46.052Z,9.15
2023-04-16T00:42:18.747Z,9.14
2023-04-16T00:42:51.412Z,9.17
2023-04-16T00:43:24.064Z,9.14
2023-04-16T00:43:56.742Z,9.15
2023-04-16T00:44:29.404Z,9.14
2023-04-16T00:45:02.119Z,9.13
2023-04-16T00:45:34.793Z,9.14
2023-04-16T00:46:07.502Z,9.14
2023-04-16T00:46:40.332Z,9.13
2023-04-16T00:47:13.057Z,9.14
2023-04-16T00:47:45.805Z,9.13
2023-04-16T00:48:18.456Z,9.13
2023-04-16T00:48:51.137Z,9.11
2023-04-16T00:49:23.801Z,9.11
2023-04-16T00:49:56.477Z,9.10
2023-04-16T00:50:29.167Z,9.10
2023-04-16T00:51:01.866Z,9.11
2023-04-16T00:51:34.514Z,9.08
2023-04-16T00:52:07.203Z,9.08
2023-04-16T00:52:39.912Z,9.10
2023-04-16T00:53:12.542Z,9.10
2023-04-16T00:53:45.202Z,9.08
2023-04-16T00:54:17.900Z,9.10
2023-04-16T00:54:50.546Z,9.08
2023-04-16T00:55:23.235Z,9.08
2023-04-16T00:55:55.881Z,9.10
2023-04-16T00:56:28.562Z,9.08
2023-04-16T00:57:01.261Z,9.05
2023-04-16T00:57:33.913Z,9.10
2023-04-16T00:58:06.584Z,9.08
2023-04-16T00:58:39.252Z,9.08
2023-04-16T00:59:11.990Z,9.08
2023-04-16T00:59:44.687Z,9.08
2023-04-16T01:00:17.374Z,9.08
2023-04-16T01:00:50.013Z,9.05
2023-04-16T01:01:16.561Z,9.05
2023-04-16T01:01:49.330Z,9.05
2023-04-16T01:02:22.162Z,9.05
2023-04-16T01:02:55.003Z,9.05
2023-04-16T01:03:27.869Z,9.05
2023-04-16T01:04:00.691Z,9.04
2023-04-16T01:04:33.462Z,9.05
2023-04-16T01:05:06.156Z,9.02
2023-04-16T01:05:38.842Z,9.02
2023-04-16T01:06:11.503Z,9.02
2023-04-16T01:06:44.193Z,9.04
2023-04-16T01:07:16.848Z,9.05
2023-04-16T01:07:49.553Z,9.04
2023-04-16T01:08:22.202Z,9.08
2023-04-16T01:08:54.884Z,9.04
2023-04-16T01:09:27.570Z,9.05
2023-04-16T01:10:00.241Z,9.05
2023-04-16T01:10:32.924Z,9.05
2023-04-16T01:11:05.609Z,9.05
2023-04-16T01:11:38.256Z,9.05
2023-04-16T01:12:10.933Z,9.08
2023-04-16T01:12:43.607Z,9.05
2023-04-16T01:13:16.270Z,9.05
2023-04-16T01:13:48.933Z,9.05
2023-04-16T01:14:21.622Z,9.05
2023-04-16T01:14:54.302Z,9.08
2023-04-16T01:15:26.939Z,9.08
2023-04-16T01:15:59.649Z,9.04
2023-04-16T01:16:32.322Z,9.04
2023-04-16T01:17:04.976Z,9.04
2023-04-16T01:17:37.694Z,9.04
2023-04-16T01:18:10.355Z,9.05
2023-04-16T01:18:41.437Z,9.08
2023-04-16T01:19:14.089Z,9.08
2023-04-16T01:19:46.758Z,9.05
2023-04-16T01:20:19.425Z,9.05
2023-04-16T01:20:52.106Z,9.05
2023-04-16T01:21:24.761Z,9.05
2023-04-16T01:21:57.426Z,9.08
2023-04-16T01:22:30.093Z,9.08
2023-04-16T01:23:02.857Z,9.05
2023-04-16T01:23:35.529Z,9.08
2023-04-16T01:24:08.198Z,9.08
2023-04-16T01:24:40.874Z,9.08
2023-04-16T01:25:13.523Z,9.05
2023-04-16T01:25:46.190Z,9.08
2023-04-16T01:26:18.859Z,9.10
2023-04-16T01:26:51.533Z,9.10
2023-04-16T01:27:24.281Z,9.10
2023-04-16T01:27:56.964Z,9.05
2023-04-16T01:28:29.625Z,9.08
2023-04-16T01:29:02.295Z,9.08
2023-04-16T01:29:34.966Z,9.05
2023-04-16T01:30:07.687Z,9.05
2023-04-16T01:30:38.750Z,9.08
2023-04-16T01:31:11.430Z,9.08
2023-04-16T01:31:44.132Z,9.04
2023-04-16T01:32:16.795Z,9.05
2023-04-16T01:32:49.526Z,9.05
2023-04-16T01:33:22.209Z,9.05
2023-04-16T01:33:54.860Z,9.02
2023-04-16T01:34:27.538Z,9.04
2023-04-16T01:35:00.237Z,9.04
2023-04-16T01:35:32.905Z,9.05
2023-04-16T01:36:05.565Z,9.04
2023-04-16T01:36:38.227Z,9.04
2023-04-16T01:37:10.896Z,9.04
2023-04-16T01:37:43.576Z,9.02
2023-04-16T01:38:16.259Z,9.04
2023-04-16T01:38:48.929Z,9.04
2023-04-16T01:39:21.591Z,9.04
2023-04-16T01:39:54.289Z,9.02
2023-04-16T01:40:26.933Z,9.02
2023-04-16T01:40:59.643Z,9.02
2023-04-16T01:41:32.288Z,9.02
2023-04-16T01:42:04.951Z,9.02
2023-04-16T01:42:37.677Z,9.04
2023-04-16T01:43:10.329Z,9.02
2023-04-16T01:43:43.014Z,9.01
2023-04-16T01:44:15.692Z,9.02
2023-04-16T01:44:48.373Z,9.01
2023-04-16T01:45:21.056Z,9.01
2023-04-16T01:45:53.721Z,8.99
2023-04-16T01:46:26.443Z,9.01
2023-04-16T01:46:59.247Z,9.01
2023-04-16T01:47:31.963Z,8.98
2023-04-16T01:48:04.624Z,8.98
2023-04-16T01:48:37.299Z,9.01
2023-04-16T01:49:10.133Z,9.01
2023-04-16T01:49:42.891Z,8.99
2023-04-16T01:50:15.563Z,8.99
2023-04-16T01:50:48.233Z,8.99
2023-04-16T01:51:20.899Z,8.99
2023-04-16T01:51:53.567Z,8.99
2023-04-16T01:52:26.236Z,8.98
2023-04-16T01:52:58.925Z,8.98
2023-04-16T01:53:31.593Z,8.96
2023-04-16T01:54:04.295Z,8.96
2023-04-16T01:54:36.961Z,8.96
2023-04-16T01:55:09.650Z,8.94
2023-04-16T01:55:42.304Z,8.95
2023-04-16T01:56:14.971Z,8.94
2023-04-16T01:56:47.643Z,8.94
2023-04-16T01:57:20.297Z,8.96
2023-04-16T01:57:52.982Z,8.95
2023-04-16T01:58:25.646Z,8.95
2023-04-16T01:58:58.315Z,8.96
2023-04-16T01:59:30.970Z,8.95
2023-04-16T02:00:03.638Z,8.94
2023-04-16T02:00:36.336Z,8.94
2023-04-16T02:01:09.019Z,8.96
2023-04-16T02:01:41.690Z,8.95
2023-04-16T02:02:14.409Z,8.94
2023-04-16T02:02:47.297Z,8.92
2023-04-16T02:03:20.262Z,8.92
2023-04-16T02:03:53.190Z,8.92
2023-04-16T02:04:25.907Z,8.92
2023-04-16T02:04:58.576Z,8.92
2023-04-16T02:05:31.249Z,8.92
2023-04-16T02:06:03.958Z,8.92
2023-04-16T02:06:36.622Z,8.92
2023-04-16T02:07:09.319Z,8.94
2023-04-16T02:07:41.986Z,8.91
2023-04-16T02:08:14.650Z,8.92
2023-04-16T02:08:47.310Z,8.91
2023-04-16T02:09:19.982Z,8.91
2023-04-16T02:09:52.650Z,8.91
2023-04-16T02:10:25.344Z,8.91
2023-04-16T02:10:57.991Z,8.91
2023-04-16T02:11:30.665Z,8.89
2023-04-16T02:12:03.325Z,8.89
2023-04-16T02:12:36.010Z,8.87
2023-04-16T02:13:08.669Z,8.89
2023-04-16T02:13:41.338Z,8.89
2023-04-16T02:14:14.012Z,8.89
2023-04-16T02:14:46.670Z,8.89
2023-04-16T02:15:19.338Z,8.87
2023-04-16T02:15:52.010Z,8.87
2023-04-16T02:16:24.810Z,8.89
2023-04-16T02:16:57.492Z,8.87
2023-04-16T02:17:30.179Z,8.87
2023-04-16T02:18:02.879Z,8.87
2023-04-16T02:18:35.519Z,8.84
2023-04-16T02:19:08.836Z,8.86
2023-04-16T02:19:35.132Z,8.86
2023-04-16T02:20:07.836Z,8.86
2023-04-16T02:20:40.490Z,8.86
2023-04-16T02:21:13.179Z,8.84
2023-04-16T02:21:45.853Z,8.83
2023-04-16T02:22:18.520Z,8.83
2023-04-16T02:22:51.216Z,8.84
2023-04-16T02:23:23.876Z,8.84
2023-04-16T02:23:56.546Z,8.84
2023-04-16T02:24:29.239Z,8.84
2023-04-16T02:25:01.899Z,8.86
2023-04-16T02:25:34.582Z,8.87
2023-04-16T02:26:07.232Z,8.87
2023-04-16T02:26:39.908Z,8.86
2023-04-16T02:27:12.587Z,8.86
2023-04-16T02:27:45.264Z,8.83
2023-04-16T02:28:17.919Z,8.84
2023-04-16T02:28:50.600Z,8.83
2023-04-16T02:29:23.257Z,8.81
2023-04-16T02:29:55.957Z,8.81
2023-04-16T02:30:28.599Z,8.81
2023-04-16T02:31:01.261Z,8.80
2023-04-16T02:31:33.972Z,8.79
2023-04-16T02:32:06.737Z,8.81
2023-04-16T02:32:39.506Z,8.81
2023-04-16T02:33:12.194Z,8.81
2023-04-16T02:33:44.854Z,8.81
2023-04-16T02:34:17.535Z,8.81
2023-04-16T02:34:50.189Z,8.80
2023-04-16T02:35:21.306Z,8.80
2023-04-16T02:35:53.951Z,8.81
2023-04-16T02:36:26.616Z,8.80
2023-04-16T02:36:59.282Z,8.77
2023-04-16T02:37:31.944Z,8.77
2023-04-16T02:38:04.629Z,8.79
2023-04-16T02:38:37.308Z,8.77
2023-04-16T02:39:10.183Z,8.76
2023-04-16T02:39:42.949Z,8.76
2023-04-16T02:40:15.610Z,8.76
2023-04-16T02:40:48.309Z,8.76
2023-04-16T02:41:20.976Z,8.76
2023-04-16T02:41:52.048Z,8.76
2023-04-16T02:42:24.720Z,8.74
2023-04-16T02:42:57.402Z,8.76
2023-04-16T02:43:30.080Z,8.76
2023-04-16T02:44:02.794Z,8.76
2023-04-16T02:44:35.441Z,8.76
2023-04-16T02:45:08.113Z,8.76
2023-04-16T02:45:40.822Z,8.76
2023-04-16T02:46:13.533Z,8.73
2023-04-16T02:46:46.177Z,8.73
2023-04-16T02:47:18.887Z,8.71
2023-04-16T02:47:51.550Z,8.71
2023-04-16T02:48:24.220Z,8.71
2023-04-16T02:48:56.895Z,8.73
2023-04-16T02:49:29.551Z,8.70
2023-04-16T02:50:02.203Z,8.71
2023-04-16T02:50:34.876Z,8.70
2023-04-16T02:51:07.555Z,8.71
2023-04-16T02:51:40.241Z,8.68
2023-04-16T02:52:15.104Z,8.68
2023-04-16T02:52:41.865Z,8.70
2023-04-16T02:53:14.514Z,8.70
2023-04-16T02:53:45.609Z,8.68
2023-04-16T02:54:18.257Z,8.68
2023-04-16T02:54:50.925Z,8.70
2023-04-16T02:55:23.621Z,8.70
2023-04-16T02:55:56.337Z,8.70
2023-04-16T02:56:28.985Z,8.71
2023-04-16T02:57:01.641Z,8.70
2023-04-16T02:57:34.327Z,8.70
2023-04-16T02:58:07.006Z,8.68
2023-04-16T02:58:39.672Z,8.68
2023-04-16T02:59:12.369Z,8.68
2023-04-16T02:59:45.025Z,8.66
2023-04-16T03:00:17.701Z,8.66
2023-04-16T03:00:50.360Z,8.66
2023-04-16T03:01:23.232Z,8.68
2023-04-16T03:01:55.930Z,8.68
2023-04-16T03:02:28.717Z,8.68
2023-04-16T03:03:01.461Z,8.66
2023-04-16T03:03:34.153Z,8.65
2023-04-16T03:04:06.896Z,8.65
2023-04-16T03:04:39.682Z,8.62
2023-04-16T03:05:12.456Z,8.62
2023-04-16T03:05:45.111Z,8.61
2023-04-16T03:06:17.781Z,8.61
2023-04-16T03:06:50.450Z,8.62
2023-04-16T03:07:23.116Z,8.61
2023-04-16T03:07:55.807Z,8.61
2023-04-16T03:08:28.479Z,8.61
2023-04-16T03:09:01.188Z,8.62
2023-04-16T03:09:33.821Z,8.62
2023-04-16T03:10:06.483Z,8.61
2023-04-16T03:10:39.158Z,8.61
2023-04-16T03:11:11.853Z,8.58
2023-04-16T03:11:44.486Z,8.59
2023-04-16T03:12:17.172Z,8.56
2023-04-16T03:12:49.838Z,8.56
2023-04-16T03:13:22.507Z,8.55
2023-04-16T03:13:55.187Z,8.52
2023-04-16T03:14:27.855Z,8.52
2023-04-16T03:15:00.554Z,8.53
2023-04-16T03:15:33.298Z,8.52
2023-04-16T03:16:05.969Z,8.52
2023-04-16T03:16:38.811Z,8.53
2023-04-16T03:17:11.459Z,8.53
2023-04-16T03:17:44.217Z,8.53
2023-04-16T03:18:16.911Z,8.52
2023-04-16T03:18:49.583Z,8.52
2023-04-16T03:19:22.253Z,8.53
2023-04-16T03:19:54.919Z,8.53
2023-04-16T03:20:27.607Z,8.52
2023-04-16T03:21:00.259Z,8.50
2023-04-16T03:21:32.926Z,8.48
2023-04-16T03:22:05.605Z,8.50
2023-04-16T03:22:38.277Z,8.48
2023-04-16T03:23:10.981Z,8.47
2023-04-16T03:23:43.629Z,8.50
2023-04-16T03:24:16.290Z,8.48
2023-04-16T03:24:48.978Z,8.48
2023-04-16T03:25:21.645Z,8.47
2023-04-16T03:25:54.325Z,8.48
2023-04-16T03:26:27.001Z,8.48
2023-04-16T03:26:59.657Z,8.47
2023-04-16T03:27:32.344Z,8.45
2023-04-16T03:28:05.018Z,8.47
2023-04-16T03:28:37.679Z,8.45
2023-04-16T03:29:10.622Z,8.45
2023-04-16T03:29:37.019Z,8.47
2023-04-16T03:30:09.705Z,8.47
2023-04-16T03:30:42.359Z,8.47
2023-04-16T03:31:15.084Z,8.47
2023-04-16T03:31:47.914Z,8.45
2023-04-16T03:32:20.599Z,8.45
2023-04-16T03:32:53.307Z,8.45
2023-04-16T03:33:25.950Z,8.45
2023-04-16T03:33:58.643Z,8.44
2023-04-16T03:34:31.313Z,8.44
2023-04-16T03:35:03.973Z,8.44
2023-04-16T03:35:36.658Z,8.44
2023-04-16T03:36:09.312Z,8.43
2023-04-16T03:36:42.005Z,8.44
2023-04-16T03:37:14.668Z,8.44
2023-04-16T03:37:47.537Z,8.45
2023-04-16T03:38:20.201Z,8.44
2023-04-16T03:38:52.869Z,8.44
2023-04-16T03:39:25.535Z,8.44
2023-04-16T03:39:58.203Z,8.44
2023-04-16T03:40:30.870Z,8.44
2023-04-16T03:41:03.607Z,8.44
2023-04-16T03:41:36.258Z,8.44
2023-04-16T03:42:08.914Z,8.44
2023-04-16T03:42:41.577Z,8.44
2023-04-16T03:43:14.234Z,8.45
2023-04-16T03:43:46.911Z,8.44
2023-04-16T03:44:19.587Z,8.44
2023-04-16T03:44:52.266Z,8.43
2023-04-16T03:45:24.934Z,8.44
2023-04-16T03:45:57.595Z,8.43
2023-04-16T03:46:30.336Z,8.41
2023-04-16T03:47:03.002Z,8.41
2023-04-16T03:47:35.712Z,8.41
2023-04-16T03:48:08.385Z,8.40
2023-04-16T03:48:41.073Z,8.41
2023-04-16T03:49:13.719Z,8.41
2023-04-16T03:49:46.506Z,8.40
2023-04-16T03:50:19.132Z,8.40
2023-04-16T03:50:51.802Z,8.41
2023-04-16T03:51:24.480Z,8.38
2023-04-16T03:51:57.161Z,8.40
2023-04-16T03:52:29.838Z,8.38
2023-04-16T03:53:02.523Z,8.38
2023-04-16T03:53:35.179Z,8.37
2023-04-16T03:54:07.845Z,8.37
2023-04-16T03:54:40.535Z,8.37
2023-04-16T03:55:13.207Z,8.37
2023-04-16T03:55:45.879Z,8.34
2023-04-16T03:56:18.581Z,8.36
2023-04-16T03:56:51.284Z,8.36
2023-04-16T03:57:23.928Z,8.37
2023-04-16T03:57:56.620Z,8.36
2023-04-16T03:58:29.295Z,8.36
2023-04-16T03:59:01.938Z,8.36
2023-04-16T03:59:34.604Z,8.34
2023-04-16T04:00:07.276Z,8.34
2023-04-16T04:00:39.944Z,8.36
2023-04-16T04:01:12.627Z,8.36
2023-04-16T04:01:45.309Z,8.36
2023-04-16T04:02:18.023Z,8.36
2023-04-16T04:02:50.844Z,8.34
2023-04-16T04:03:23.789Z,8.34
2023-04-16T04:03:50.280Z,8.36
2023-04-16T04:04:16.728Z,8.37
2023-04-16T04:04:49.474Z,8.36
2023-04-16T04:05:22.152Z,8.37
2023-04-16T04:05:54.815Z,8.36
2023-04-16T04:06:27.487Z,8.37
2023-04-16T04:07:00.139Z,8.36
2023-04-16T04:07:32.799Z,8.38
2023-04-16T04:08:05.506Z,8.37
2023-04-16T04:08:38.152Z,8.37
2023-04-16T04:09:11.029Z,8.36
2023-04-16T04:09:43.807Z,8.36
2023-04-16T04:10:16.459Z,8.36
2023-04-16T04:10:49.128Z,8.37
2023-04-16T04:11:21.820Z,8.37
2023-04-16T04:11:54.485Z,8.36
2023-04-16T04:12:27.134Z,8.36
2023-04-16T04:12:59.818Z,8.36
2023-04-16T04:13:32.519Z,8.38
2023-04-16T04:14:05.177Z,8.34
2023-04-16T04:14:37.860Z,8.36
2023-04-16T04:15:10.529Z,8.36
2023-04-16T04:15:43.180Z,8.37
2023-04-16T04:16:15.881Z,8.36
2023-04-16T04:16:48.627Z,8.36
2023-04-16T04:17:21.367Z,8.36
2023-04-16T04:17:54.078Z,8.36
2023-04-16T04:18:26.763Z,8.36
2023-04-16T04:18:59.407Z,8.34
2023-04-16T04:19:32.077Z,8.34
2023-04-16T04:20:04.744Z,8.37
2023-04-16T04:20:37.422Z,8.36
2023-04-16T04:21:10.085Z,8.36
2023-04-16T04:21:42.769Z,8.36
2023-04-16T04:22:15.418Z,8.37
2023-04-16T04:22:48.088Z,8.36
2023-04-16T04:23:20.768Z,8.34
2023-04-16T04:23:55.010Z,8.37
2023-04-16T04:24:22.141Z,8.37
2023-04-16T04:24:54.829Z,8.36
2023-04-16T04:25:27.481Z,8.37
2023-04-16T04:26:00.212Z,8.36
2023-04-16T04:26:32.859Z,8.37
2023-04-16T04:27:05.570Z,8.36
2023-04-16T04:27:38.209Z,8.36
2023-04-16T04:28:10.924Z,8.36
2023-04-16T04:28:43.589Z,8.37
2023-04-16T04:29:16.261Z,8.38
2023-04-16T04:29:48.943Z,8.36
2023-04-16T04:30:21.597Z,8.37
2023-04-16T04:30:54.270Z,8.36
2023-04-16T04:31:26.948Z,8.36
2023-04-16T04:31:59.654Z,8.36
2023-04-16T04:32:32.439Z,8.36
2023-04-16T04:34:21.744Z,8.36
2023-04-16T04:34:54.415Z,8.36
2023-04-16T04:35:27.096Z,8.34
2023-04-16T04:35:59.750Z,8.34
2023-04-16T04:36:32.423Z,8.34
2023-04-16T04:37:05.096Z,8.36
2023-04-16T04:37:37.762Z,8.36
2023-04-16T04:38:10.463Z,8.36
2023-04-16T04:38:43.126Z,8.37
2023-04-16T04:39:15.812Z,8.34
2023-04-16T04:39:48.464Z,8.36
2023-04-16T04:40:21.126Z,8.37
2023-04-16T04:40:53.796Z,8.36
2023-04-16T04:41:26.457Z,8.36
2023-04-16T04:41:59.152Z,8.33
2023-04-16T04:42:31.824Z,8.33
2023-04-16T04:43:04.498Z,8.34
2023-04-16T04:43:37.162Z,8.34
2023-04-16T04:44:09.819Z,8.34
2023-04-16T04:44:42.500Z,8.34
2023-04-16T04:45:15.175Z,8.33
2023-04-16T04:45:47.849Z,8.33
2023-04-16T04:46:20.569Z,8.34
2023-04-16T04:46:53.251Z,8.29
2023-04-16T04:47:25.951Z,8.30
2023-04-16T04:47:58.635Z,8.29
2023-04-16T04:48:31.298Z,8.26
2023-04-16T04:49:03.964Z,8.29
2023-04-16T04:49:36.640Z,8.29
2023-04-16T04:50:09.334Z,8.26
2023-04-16T04:50:41.997Z,8.29
2023-04-16T04:51:14.663Z,8.29
2023-04-16T04:51:47.346Z,8.26
2023-04-16T04:52:20.016Z,8.28
2023-04-16T04:52:52.708Z,8.28
2023-04-16T04:53:25.352Z,8.28
2023-04-16T04:53:58.013Z,8.26
2023-04-16T04:54:30.680Z,8.29
2023-04-16T04:55:03.355Z,8.25
2023-04-16T04:55:36.019Z,8.28
2023-04-16T04:56:12.866Z,8.28
2023-04-16T04:56:39.291Z,8.28
2023-04-16T04:57:11.965Z,8.28
2023-04-16T04:57:44.655Z,8.28
2023-04-16T04:58:17.329Z,8.26
2023-04-16T04:58:49.984Z,8.28
2023-04-16T04:59:22.652Z,8.29
2023-04-16T04:59:55.318Z,8.26
2023-04-16T05:00:27.985Z,8.29
2023-04-16T05:01:00.708Z,8.26
2023-04-16T05:01:33.418Z,8.26
2023-04-16T05:02:06.105Z,8.23
2023-04-16T05:02:38.904Z,8.26
2023-04-16T05:03:11.742Z,8.26
2023-04-16T05:03:44.623Z,8.23
2023-04-16T05:04:17.546Z,8.23
2023-04-16T05:04:50.370Z,8.25
2023-04-16T05:05:23.048Z,8.25
2023-04-16T05:05:55.704Z,8.23
2023-04-16T05:06:29.686Z,8.23
2023-04-16T05:06:55.868Z,8.22
2023-04-16T05:07:28.548Z,8.20
2023-04-16T05:08:01.240Z,8.20
2023-04-16T05:08:33.903Z,8.19
2023-04-16T05:09:06.598Z,8.19
2023-04-16T05:09:39.265Z,8.20
2023-04-16T05:10:11.941Z,8.20
2023-04-16T05:10:44.622Z,8.20
2023-04-16T05:11:17.306Z,8.22
2023-04-16T05:11:49.979Z,8.20
2023-04-16T05:12:21.067Z,8.22
2023-04-16T05:12:53.789Z,8.20
2023-04-16T05:13:26.428Z,8.23
2023-04-16T05:13:57.518Z,8.19
2023-04-16T05:14:30.194Z,8.20
2023-04-16T05:15:02.880Z,8.19
2023-04-16T05:15:35.520Z,8.20
2023-04-16T05:16:08.190Z,8.20
2023-04-16T05:16:40.890Z,8.20
2023-04-16T05:17:13.574Z,8.20
2023-04-16T05:17:46.280Z,8.22
2023-04-16T05:18:18.938Z,8.19
2023-04-16T05:18:51.602Z,8.23
2023-04-16T05:19:24.258Z,8.22
2023-04-16T05:19:56.958Z,8.20
2023-04-16T05:20:29.598Z,8.22
2023-04-16T05:21:02.261Z,8.20
2023-04-16T05:21:34.942Z,8.22
2023-04-16T05:22:07.588Z,8.22
2023-04-16T05:22:40.387Z,8.22
2023-04-16T05:23:13.045Z,8.22
2023-04-16T05:23:45.713Z,8.23
2023-04-16T05:24:18.366Z,8.23
2023-04-16T05:24:51.037Z,8.22
2023-04-16T05:25:23.712Z,8.22
2023-04-16T05:25:56.401Z,8.22
2023-04-16T05:26:29.082Z,8.23
2023-04-16T05:27:01.744Z,8.23
2023-04-16T05:27:34.427Z,8.20
2023-04-16T05:28:07.177Z,8.22
2023-04-16T05:28:39.878Z,8.23
2023-04-16T05:29:12.560Z,8.22
2023-04-16T05:29:45.192Z,8.25
2023-04-16T05:30:17.859Z,8.25
2023-04-16T05:30:50.566Z,8.25
2023-04-16T05:31:23.280Z,8.23
2023-04-16T05:31:55.938Z,8.25
2023-04-16T05:32:28.626Z,8.26
2023-04-16T05:33:01.395Z,8.26
2023-04-16T05:33:34.064Z,8.25
2023-04-16T05:34:06.732Z,8.26
2023-04-16T05:34:39.389Z,8.26
2023-04-16T05:35:12.069Z,8.26
2023-04-16T05:35:44.741Z,8.28
2023-04-16T05:36:17.420Z,8.29
2023-04-16T05:36:50.067Z,8.29
2023-04-16T05:37:22.737Z,8.29
2023-04-16T05:37:55.409Z,8.30
2023-04-16T05:38:28.075Z,8.29
2023-04-16T05:39:00.761Z,8.29
2023-04-16T05:39:33.421Z,8.29
2023-04-16T05:40:06.086Z,8.28
2023-04-16T05:40:38.765Z,8.29
2023-04-16T05:41:11.405Z,8.28
2023-04-16T05:41:44.083Z,8.30
2023-04-16T05:42:16.788Z,8.29
2023-04-16T05:42:49.438Z,8.29
2023-04-16T05:43:22.154Z,8.28
2023-04-16T05:43:54.816Z,8.28
2023-04-16T05:44:27.497Z,8.28
2023-04-16T05:45:00.164Z,8.29
2023-04-16T05:45:32.826Z,8.28
2023-04-16T05:46:05.514Z,8.29
2023-04-16T05:46:38.394Z,8.29
2023-04-16T05:47:11.164Z,8.33
2023-04-16T05:47:43.852Z,8.33
2023-04-16T05:48:16.511Z,8.30
2023-04-16T05:48:49.177Z,8.34
2023-04-16T05:49:21.840Z,8.33
2023-04-16T05:49:54.508Z,8.33
2023-04-16T05:50:27.198Z,8.33
2023-04-16T05:50:59.856Z,8.34
2023-04-16T05:51:32.528Z,8.33
2023-04-16T05:52:05.203Z,8.34
2023-04-16T05:52:37.879Z,8.36
2023-04-16T05:53:10.552Z,8.37
2023-04-16T05:53:43.225Z,8.37
2023-04-16T05:54:15.922Z,8.38
2023-04-16T05:54:48.596Z,8.38
2023-04-16T05:55:21.242Z,8.38
2023-04-16T05:55:53.908Z,8.40
2023-04-16T05:56:26.577Z,8.38
2023-04-16T05:56:59.242Z,8.38
2023-04-16T05:57:31.925Z,8.38
2023-04-16T05:58:04.597Z,8.37
2023-04-16T05:58:37.302Z,8.38
2023-04-16T05:59:10.186Z,8.38
2023-04-16T05:59:36.517Z,8.37
2023-04-16T06:00:09.172Z,8.36
2023-04-16T06:00:41.840Z,8.36
2023-04-16T06:01:14.548Z,8.38
2023-04-16T06:01:47.214Z,8.36
2023-04-16T06:02:20.011Z,8.38
2023-04-16T06:02:52.855Z,8.38
2023-04-16T06:03:25.676Z,8.38
2023-04-16T06:03:58.461Z,8.40
2023-04-16T06:04:31.173Z,8.41
2023-04-16T06:05:03.867Z,8.41
2023-04-16T06:05:36.625Z,8.41
2023-04-16T06:06:09.374Z,8.41
2023-04-16T06:06:42.034Z,8.41
2023-04-16T06:07:14.702Z,8.41
2023-04-16T06:07:47.364Z,8.43
2023-04-16T06:08:20.051Z,8.43
2023-04-16T06:08:52.721Z,8.44
2023-04-16T06:09:25.383Z,8.44
2023-04-16T06:09:58.069Z,8.43
2023-04-16T06:10:30.737Z,8.43
2023-04-16T06:11:03.409Z,8.43
2023-04-16T06:11:36.519Z,8.43
2023-04-16T06:12:02.712Z,8.43
2023-04-16T06:12:35.387Z,8.43
2023-04-16T06:13:08.079Z,8.44
2023-04-16T06:13:40.769Z,8.44
2023-04-16T06:14:13.403Z,8.43
2023-04-16T06:14:46.081Z,8.44
2023-04-16T06:15:18.742Z,8.45
2023-04-16T06:15:51.439Z,8.45
2023-04-16T06:16:24.078Z,8.47
2023-04-16T06:16:56.746Z,8.48
2023-04-16T06:17:29.420Z,8.50
2023-04-16T06:18:02.163Z,8.50
2023-04-16T06:18:34.861Z,8.50
2023-04-16T06:19:07.701Z,8.48
2023-04-16T06:19:40.460Z,8.47
2023-04-16T06:20:13.122Z,8.48
2023-04-16T06:20:45.813Z,8.50
2023-04-16T06:21:18.459Z,8.50
2023-04-16T06:21:51.152Z,8.50
2023-04-16T06:22:23.813Z,8.52
2023-04-16T06:22:56.495Z,8.52
2023-04-16T06:23:29.167Z,8.52
2023-04-16T06:24:01.875Z,8.52
2023-04-16T06:24:34.528Z,8.50
2023-04-16T06:25:07.205Z,8.52
2023-04-16T06:25:39.883Z,8.52
2023-04-16T06:26:12.530Z,8.52
2023-04-16T06:26:45.224Z,8.53
2023-04-16T06:27:17.892Z,8.53
2023-04-16T06:27:50.605Z,8.53
2023-04-16T06:28:23.259Z,8.55
2023-04-16T06:28:55.939Z,8.55
2023-04-16T06:29:39.987Z,8.55
2023-04-16T06:30:00.666Z,8.53
2023-04-16T06:30:26.842Z,8.53
2023-04-16T06:30:59.520Z,8.55
2023-04-16T06:31:32.253Z,8.53
2023-04-16T06:32:04.974Z,8.55
2023-04-16T06:32:37.696Z,8.55
2023-04-16T06:33:10.350Z,8.56
2023-04-16T06:33:43.004Z,8.55
2023-04-16T06:34:15.692Z,8.55
2023-04-16T06:34:48.498Z,8.55
2023-04-16T06:35:21.175Z,8.55
2023-04-16T06:35:53.824Z,8.55
2023-04-16T06:36:26.518Z,8.56
2023-04-16T06:36:59.153Z,8.59
2023-04-16T06:37:31.844Z,8.56
2023-04-16T06:38:04.516Z,8.59
2023-04-16T06:38:37.195Z,8.59
2023-04-16T06:39:10.162Z,8.58
2023-04-16T06:39:36.471Z,8.58
2023-04-16T06:40:09.146Z,8.59
2023-04-16T06:40:41.812Z,8.58
2023-04-16T06:41:14.480Z,8.59
2023-04-16T06:41:47.162Z,8.59
2023-04-16T06:42:19.820Z,8.59
2023-04-16T06:42:52.489Z,8.59
2023-04-16T06:43:25.148Z,8.59
2023-04-16T06:43:57.842Z,8.61
2023-04-16T06:44:30.479Z,8.59
2023-04-16T06:45:03.152Z,8.56
2023-04-16T06:45:35.814Z,8.55
2023-04-16T06:46:08.498Z,8.58
2023-04-16T06:46:41.290Z,8.58
2023-04-16T06:47:13.962Z,8.58
2023-04-16T06:47:46.700Z,8.61
2023-04-16T06:48:19.363Z,8.61
2023-04-16T06:48:52.032Z,8.61
2023-04-16T06:49:24.705Z,8.61
2023-04-16T06:49:57.418Z,8.59
2023-04-16T06:50:30.060Z,8.59
2023-04-16T06:51:02.730Z,8.61
2023-04-16T06:51:35.398Z,8.62
2023-04-16T06:52:08.062Z,8.62
2023-04-16T06:52:40.743Z,8.63
2023-04-16T06:53:13.417Z,8.65
2023-04-16T06:53:46.085Z,8.66
2023-04-16T06:54:18.759Z,8.66
2023-04-16T06:54:51.453Z,8.68
2023-04-16T06:55:24.103Z,8.68
2023-04-16T06:55:56.770Z,8.68
2023-04-16T06:56:29.431Z,8.68
2023-04-16T06:57:02.151Z,8.66
2023-04-16T06:57:37.319Z,8.65
2023-04-16T06:58:03.694Z,8.65
2023-04-16T06:58:36.373Z,8.66
2023-04-16T06:59:09.314Z,8.66
2023-04-16T06:59:35.593Z,8.66
2023-04-16T07:00:08.269Z,8.65
2023-04-16T07:00:40.963Z,8.68
2023-04-16T07:01:13.642Z,8.66
2023-04-16T07:01:46.344Z,8.65
2023-04-16T07:02:19.055Z,8.65
2023-04-16T07:02:51.963Z,8.65
2023-04-16T07:03:24.849Z,8.68
2023-04-16T07:03:57.758Z,8.68
2023-04-16T07:04:30.518Z,8.68
2023-04-16T07:05:03.175Z,8.68
2023-04-16T07:05:35.845Z,8.66
2023-04-16T07:06:08.498Z,8.68
2023-04-16T07:06:41.166Z,8.68
2023-04-16T07:07:13.837Z,8.68
2023-04-16T07:07:46.498Z,8.70
2023-04-16T07:08:19.177Z,8.70
2023-04-16T07:08:51.849Z,8.66
2023-04-16T07:09:24.515Z,8.68
2023-04-16T07:09:57.184Z,8.63
2023-04-16T07:10:29.857Z,8.62
2023-04-16T07:11:02.535Z,8.62
2023-04-16T07:11:35.185Z,8.62
2023-04-16T07:12:07.859Z,8.61
2023-04-16T07:12:40.528Z,8.61
2023-04-16T07:13:13.211Z,8.61
2023-04-16T07:13:45.874Z,8.63
2023-04-16T07:14:18.559Z,8.63